AirNav   Pilot Hours Calculator
 
 1226 users online  

3TS0 East Side Airport
Longview, Texas, USA

GOING TO LONGVIEW?


FAA INFORMATION EFFECTIVE 25 MARCH 2021

Location

FAA Identifier: 3TS0
Lat/Long: 32-30-30.5330N 094-42-00.7540W
32-30.508883N 094-42.012567W
32.5084814,-94.7002094
(estimated)
Elevation: 373 ft. / 114 m (estimated)
Variation: 05E (1985)
From city: 2 miles E of LONGVIEW, TX
Time zone: UTC -5 (UTC -6 during Standard Time)
Zip code: 75601

Airport Operations

Airport use: Private use. Permission required prior to landing
Activation date: 01/1946
Control tower: no
ARTCC: FORT WORTH CENTER
FSS: FORT WORTH FLIGHT SERVICE STATION
Attendance: UNATNDD
Wind indicator: yes
Segmented circle: no
Landing fee: yes

Airport Communications

WX ASOS at GGG (7 nm S): 119.65 (903-643-4029)
WX AWOS-3 at JXI (17 nm NW): 118.2 (903-734-7313)
WX AWOS-3 at ASL (20 nm E): 118.675 (903-938-2060)

Nearby radio navigation aids

VOR radial/distance  VOR name  Freq  Var
GGGr019/6.1GREGG COUNTY VORTAC112.9007E
TYRr070/36.8TYLER VOR/DME114.2006E

 
NDB name  Hdg/Dist  Freq  Var  ID
VEELS054/5.941003EGG --. --.
AMBASSADOR095/21.440407EABG .- -... --.
CARTHAGE310/28.433204ERPF .-. .--. ..-.

Airport Services

Parking: tiedowns
Airframe service: NONE
Powerplant service: NONE
Bottled oxygen: NONE
Bulk oxygen: NONE

Runway Information

Runway 13/31

Dimensions: 2400 x 75 ft. / 732 x 23 m
Surface: turf, in fair condition
RUNWAY 13  RUNWAY 31
Traffic pattern: leftleft
Markings: nonenone
Runway end identifier lights: nono
Obstructions: 30 ft. trees, 40 ft. right of centerline4 ft. fence

Runway 8/26

Dimensions: 2025 x 50 ft. / 617 x 15 m
Surface: turf, in fair condition
RUNWAY 8  RUNWAY 26
Traffic pattern: leftleft
Markings: nonenone
Runway end identifier lights: nono
Obstructions: 30 ft. trees4 ft. fence

Airport Ownership and Management from official FAA records

Ownership: Privately-owned
Owner: FLYING L. L. TRUST
PO BOX 2429
LONGVIEW, TX 75606
Phone 903-753-5180
Manager: NEAL DON VENABLE
PO BOX 2429
LONGVIEW, TX 75606
Phone 903-753-5180

Airport Operational Statistics

Aircraft based on the field: 9
Single engine airplanes: 9
    
Aircraft operations: avg 29/week *
60% local general aviation
40% transient general aviation
* for 12-month period ending 20 March 1985

Additional Remarks

+30' TREES ALONG RWY EDGES VIOLATE PRIM SFC.
RWY 31 +30' TREE 100' FROM THR 40' LEFT.
RWY 26 +30' TREES 10' FROM THR ACROSS APCH.
FOR CD CTC FORT WORTH ARTCC AT 817-858-7584.

Instrument Procedures

There are no published instrument procedures at 3TS0.

Some nearby airports with instrument procedures:

KGGG - East Texas Regional Airport (7 nm S)
07F - Gladewater Municipal Airport (14 nm W)
KJXI - Fox Stephens Field - Gilmer Municipal Airport (17 nm NW)
KASL - Harrison County Airport (20 nm E)
KRFI - Rusk County Airport (23 nm S)
 
Loc | Ops | Rwys | IFR | FBO | Links
Com | Nav | Svcs | Stats | Notes
Area around 3TS0 (East Side Airport)
 
Road maps at: MapQuest Bing Google
 
Aerial photo
No photo
 
Sectional chart

 
Airport distance calculator
Flying to East Side Airport? Find the distance to fly.

From to 3TS0

Sunrise and sunset
Times for 12-Apr-2021
 Local
(UTC-5)
 Zulu
(UTC)
Morning civil twilight06:2911:29
Sunrise06:5411:54
Sunset19:4500:45
Evening civil twilight20:1001:10

Current date and time
Zulu (UTC)  12-Apr-2021 23:02:00
Local (UTC-5)  12-Apr-2021 18:02:00
 
METAR
KGGG 
8nm S 
122253Z 17010KT 10SM CLR 29/08 A2979 RMK AO2 SLP081 T02940083
KJXI 
17nm NW 
122255Z AUTO 14003KT 10SM CLR 29/06 A2979 RMK AO2 T02940055
KASL 
20nm E 
122255Z AUTO 17006KT 10SM CLR 30/08 A2983 RMK AO1 T02950079
TAF
KGGG 
8nm S 
121738Z 1218/1318 16007KT P6SM BKN250 FM130100 16004KT P6SM FEW040 BKN250 FM130700 21004KT P6SM BKN035 FM130900 VRB04KT P6SM BKN025 FM131600 05007KT P6SM BKN025
NOTAMs
Click for the latest NOTAMs
NOTAMs are issued by the DoD/FAA and will open in a separate window not controlled by AirNav.

 

 
 

Would you like to see your business listed on this page?

 If your business provides an interesting product or service to pilots, flight crews, aircraft, or users of the East Side Airport, you should consider listing it here.  To start the listing process, click on the button below
 
Add a business
 

Other Pages about East Side Airport

Update a link
 
Copyright © AirNav, LLC. All rights reserved. Privacy Policy  Contact